Time;durP1;ratioP1;P1;durP2;ratioP2;P2;SDS_P1;SDS_P2;PMS_P1;PMS_P2;Temp;Humidity;BMP_temperature;BMP_pressure;BME280_temperature;BME280_humidity;BME280_pressure;Samples;Min_cycle;Max_cycle;Signal;HPM_P1;HPM_P2
2022/06/01 00:00:18;;;;;;;231.47;127.07;;;;;;;;;;5029210;28;20274;-51
2022/06/01 00:02:44;;;;;;;200.47;119.20;;;;;;;;;;5031876;28;20180;-52
2022/06/01 00:05:10;;;;;;;216.53;122.13;;;;;;;;;;5033590;28;20180;-51
2022/06/01 00:07:36;;;;;;;219.83;123.70;;;;;;;;;;5032928;28;20254;-51
2022/06/01 00:10:03;;;;;;;216.00;122.33;;;14.00;99.90;;;;;;5033290;28;20212;-51
2022/06/01 00:12:29;;;;;;;232.43;127.50;;;14.00;99.90;;;;;;5032617;28;20553;-51
2022/06/01 00:14:55;;;;;;;190.43;116.30;;;;;;;;;;5032397;28;20224;-52
2022/06/01 00:17:21;;;;;;;212.33;121.57;;;13.90;99.90;;;;;;5032995;28;20196;-51
2022/06/01 00:19:47;;;;;;;209.17;119.77;;;;;;;;;;5032417;28;20224;-52
2022/06/01 00:22:14;;;;;;;203.97;117.10;;;;;;;;;;5032491;28;20242;-51
2022/06/01 00:24:41;;;;;;;206.53;116.87;;;13.70;99.90;;;;;;5032663;28;20208;-52
2022/06/01 00:27:07;;;;;;;191.97;112.93;;;;;;;;;;5032730;28;20319;-50
2022/06/01 00:29:33;;;;;;;203.43;118.00;;;;;;;;;;5032363;28;20180;-50
2022/06/01 00:31:59;;;;;;;179.23;110.00;;;;;;;;;;5032492;28;20187;-52
2022/06/01 00:34:25;;;;;;;209.43;118.13;;;13.40;99.90;;;;;;5022153;28;20863;-51
2022/06/01 00:36:51;;;;;;;187.90;110.90;;;;;;;;;;5023876;28;20212;-52
2022/06/01 00:39:17;;;;;;;175.50;107.00;;;;;;;;;;5032356;28;20243;-51
2022/06/01 00:41:43;;;;;;;190.30;111.87;;;;;;;;;;5032513;28;20188;-52
2022/06/01 00:44:09;;;;;;;157.03;101.70;;;;;;;;;;5032323;28;20263;-51
2022/06/01 00:46:34;;;;;;;170.20;106.07;;;;;;;;;;5032046;28;20253;-51
2022/06/01 00:49:18;;;;;;;167.60;104.40;;;13.10;99.90;;;;;;5030515;28;20219;-51
2022/06/01 00:51:46;;;;;;;176.30;107.17;;;12.90;99.90;;;;;;5032169;28;20222;-52
2022/06/01 00:54:13;;;;;;;155.30;100.13;;;12.90;99.90;;;;;;5032132;28;20231;-51
2022/06/01 00:56:49;;;;;;;149.90;99.27;;;12.90;99.90;;;;;;5031998;28;20203;-50
2022/06/01 00:59:19;;;;;;;131.13;92.60;;;12.80;99.90;;;;;;5032546;28;20282;-50
2022/06/01 01:01:46;;;;;;;155.30;101.13;;;12.70;99.90;;;;;;5031517;28;20204;-51
2022/06/01 01:04:12;;;;;;;137.00;94.17;;;12.80;99.90;;;;;;5031765;28;20627;-52
2022/06/01 01:06:41;;;;;;;129.87;91.37;;;12.70;99.90;;;;;;5031786;28;20216;-51
2022/06/01 01:09:08;;;;;;;129.37;91.33;;;12.70;99.90;;;;;;5032049;28;20251;-51
2022/06/01 01:11:36;;;;;;;139.38;97.60;;;12.50;99.90;;;;;;5031858;28;20517;-52
2022/06/01 01:14:07;;;;;;;96.13;81.72;;;12.70;99.90;;;;;;5029499;28;20338;-52
2022/06/01 01:16:34;;;;;;;125.37;90.23;;;12.70;99.90;;;;;;5031758;28;20201;-52
2022/06/01 01:19:01;;;;;;;116.70;87.80;;;12.50;99.90;;;;;;5031538;28;20208;-51
2022/06/01 01:22:07;;;;;;;135.83;93.27;;;15.00;99.90;;;;;;5031484;28;20220;-52
2022/06/01 01:24:50;;;;;;;102.70;81.67;;;12.50;99.90;;;;;;5031593;28;20241;-52
2022/06/01 01:27:17;;;;;;;110.17;82.07;;;12.50;99.90;;;;;;5031133;28;20224;-50
2022/06/01 01:29:44;;;;;;;116.93;81.47;;;12.20;99.90;;;;;;5031733;28;20257;-52
2022/06/01 01:32:12;;;;;;;78.73;70.27;;;12.10;99.90;;;;;;5031525;28;20223;-52
2022/06/01 01:34:39;;;;;;;81.90;73.13;;;12.20;99.90;;;;;;5018705;28;20768;-52
2022/06/01 01:37:11;;;;;;;85.93;73.57;;;12.10;99.90;;;;;;5027750;28;20691;-51
2022/06/01 01:39:37;;;;;;;88.50;69.17;;;12.10;99.90;;;;;;5031464;28;20216;-51
2022/06/01 01:42:04;;;;;;;86.77;68.00;;;12.10;99.90;;;;;;5031470;28;20600;-52
2022/06/01 01:44:36;;;;;;;91.37;65.97;;;12.10;99.90;;;;;;5030598;28;20199;-50
2022/06/01 01:47:02;;;;;;;100.82;67.30;;;12.20;99.90;;;;;;5031743;28;20183;-52
2022/06/01 01:49:30;;;;;;;62.70;52.10;;;12.10;99.90;;;;;;5031374;28;20223;-51
2022/06/01 01:52:00;;;;;;;80.17;56.03;;;12.10;99.90;;;;;;5030957;28;20250;-52
2022/06/01 01:55:01;;;;;;;47.93;42.63;;;11.80;99.90;;;;;;5031362;28;20231;-51
2022/06/01 01:57:46;;;;;;;67.27;44.13;;;11.90;99.90;;;;;;5030989;28;20229;-51
2022/06/01 02:00:25;;;;;;;87.70;50.63;;;11.90;99.90;;;;;;5015157;28;20715;-51
2022/06/01 02:02:50;;;;;;;76.80;48.13;;;;;;;;;;5016850;28;20228;-51
2022/06/01 02:08:47;;;;;;;75.37;39.00;;;11.70;99.90;;;;;;5030886;28;20659;-52
2022/06/01 02:14:31;;;;;;;44.50;17.57;;;11.60;99.90;;;;;;5034550;28;20295;-51
2022/06/01 02:17:09;;;;;;;53.60;15.57;;;11.70;99.90;;;;;;5050647;28;20198;-50
2022/06/01 02:19:50;;;;;;;53.73;14.30;;;11.50;99.90;;;;;;5050593;28;20674;-51
2022/06/01 02:22:16;;;;;;;49.70;12.87;;;11.60;99.90;;;;;;5050266;28;20211;-51
2022/06/01 02:24:42;;;;;;;42.97;10.87;;;11.50;99.90;;;;;;5045460;28;20287;-52
2022/06/01 02:27:11;;;;;;;57.20;13.97;;;11.50;99.90;;;;;;5030351;28;20212;-51
2022/06/01 02:29:49;;;;;;;52.10;12.90;;;11.70;99.90;;;;;;5030587;28;20184;-51
2022/06/01 02:32:16;;;;;;;67.53;16.90;;;11.40;99.90;;;;;;5030608;28;20160;-51
2022/06/01 02:34:44;;;;;;;50.37;12.07;;;11.70;99.90;;;;;;5030240;28;20207;-51
2022/06/01 02:37:12;;;;;;;48.87;11.93;;;11.60;99.90;;;;;;5030209;28;20286;-51
2022/06/01 02:39:42;;;;;;;54.90;13.33;;;11.40;99.90;;;;;;5030175;28;20218;-52
2022/06/01 02:42:26;;;;;;;55.10;12.47;;;;;;;;;;5030249;28;20286;-51
2022/06/01 02:44:57;;;;;;;48.37;12.20;;;11.80;99.90;;;;;;5028620;28;20204;-51
2022/06/01 02:47:24;;;;;;;62.17;14.50;;;12.00;99.90;;;;;;5030360;28;20203;-51
2022/06/01 02:49:50;;;;;;;49.00;11.60;;;;;;;;;;5028812;28;20212;-50
2022/06/01 02:52:16;;;;;;;20.83;5.67;;;;;;;;;;5030289;28;20354;-51
2022/06/01 02:54:42;;;;;;;35.67;8.70;;;11.90;99.90;;;;;;5030202;28;20449;-51
2022/06/01 02:57:08;;;;;;;64.93;15.30;;;12.20;99.90;;;;;;5029556;28;20212;-52
2022/06/01 02:59:34;;;;;;;50.87;12.53;;;12.10;99.90;;;;;;5029779;28;20184;-52
2022/06/01 03:02:00;;;;;;;54.87;13.33;;;;;;;;;;5030747;28;20255;-52
2022/06/01 03:04:27;;;;;;;50.10;12.03;;;11.90;99.90;;;;;;5029913;28;20273;-52
2022/06/01 03:06:53;;;;;;;47.07;11.43;;;12.00;99.90;;;;;;5030090;28;20248;-52
2022/06/01 03:09:18;;;;;;;57.63;13.93;;;12.00;99.90;;;;;;5030111;28;20222;-52
2022/06/01 03:11:44;;;;;;;59.93;14.67;;;11.90;99.90;;;;;;5030259;28;20176;-51
2022/06/01 03:14:10;;;;;;;33.87;8.13;;;;;;;;;;5030372;28;20298;-51
2022/06/01 03:16:37;;;;;;;57.87;13.83;;;11.90;99.90;;;;;;5029715;28;20292;-51
2022/06/01 03:19:03;;;;;;;47.77;11.67;;;11.90;99.90;;;;;;5029570;28;20294;-51
2022/06/01 03:21:29;;;;;;;53.67;12.57;;;11.70;99.90;;;;;;5029773;28;20251;-51
2022/06/01 03:23:55;;;;;;;72.03;16.93;;;;;;;;;;5030146;28;20688;-51
2022/06/01 03:26:21;;;;;;;55.40;13.27;;;12.00;99.90;;;;;;5030830;28;20242;-51
2022/06/01 03:28:47;;;;;;;27.20;7.17;;;12.00;99.90;;;;;;5029415;28;20255;-52
2022/06/01 03:31:13;;;;;;;53.03;12.83;;;;;;;;;;5029906;28;20216;-51
2022/06/01 03:33:39;;;;;;;57.00;13.20;;;;;;;;;;5029533;28;20220;-50
2022/06/01 03:36:05;;;;;;;36.53;8.93;;;11.90;99.90;;;;;;5029693;28;20252;-52
2022/06/01 03:38:31;;;;;;;51.97;12.80;;;10.70;99.90;;;;;;5033832;28;20622;-50
2022/06/01 03:40:57;;;;;;;51.50;11.75;;;;;;;;;;5034416;28;20180;-52
2022/06/01 03:43:23;;;;;;;57.97;13.53;;;;;;;;;;5031750;28;20338;-51
2022/06/01 03:45:56;;;;;;;35.53;9.07;;;;;;;;;;5033501;28;20636;-50
2022/06/01 03:48:23;;;;;;;51.33;11.87;;;12.30;99.90;;;;;;5033505;28;20227;-52
2022/06/01 03:50:49;;;;;;;49.03;11.40;;;12.20;99.90;;;;;;5031940;28;20310;-51
2022/06/01 03:53:15;;;;;;;76.20;18.00;;;12.00;99.90;;;;;;5033757;28;20263;-51
2022/06/01 03:55:42;;;;;;;49.88;11.70;;;12.10;99.90;;;;;;5033545;28;20271;-51
2022/06/01 03:58:16;;;;;;;58.53;13.57;;;12.20;99.90;;;;;;5032741;28;20246;-52
2022/06/01 04:00:42;;;;;;;63.53;14.23;;;;;;;;;;5033059;28;20306;-50
2022/06/01 04:03:09;;;;;;;65.27;14.97;;;11.80;99.90;;;;;;5032747;28;20274;-51
2022/06/01 04:05:35;;;;;;;37.63;9.37;;;;;;;;;;5032817;28;20184;-52
2022/06/01 04:08:02;;;;;;;74.00;17.30;;;;;;;;;;5033367;28;20607;-52
2022/06/01 04:10:27;;;;;;;56.27;13.47;;;11.80;99.90;;;;;;5032966;28;20350;-51
2022/06/01 04:12:53;;;;;;;47.60;11.67;;;;;;;;;;5032720;28;20223;-51
2022/06/01 04:15:19;;;;;;;67.93;15.27;;;12.10;99.90;;;;;;5032299;28;20715;-50
2022/06/01 04:17:45;;;;;;;73.93;17.00;;;;;;;;;;5032165;28;20599;-52
2022/06/01 04:20:12;;;;;;;73.00;16.87;;;12.10;99.90;;;;;;5033646;28;20177;-51
2022/06/01 04:22:40;;;;;;;70.03;15.53;;;12.20;99.90;;;;;;5032082;28;20228;-51
2022/06/01 04:25:09;;;;;;;52.33;12.03;;;12.10;99.90;;;;;;5012936;28;20219;-51
2022/06/01 04:27:35;;;;;;;54.20;13.07;;;12.30;99.90;;;;;;5016179;28;20219;-52
2022/06/01 04:30:00;;;;;;;72.80;16.83;;;12.30;99.90;;;;;;5031988;28;20588;-51
2022/06/01 04:32:31;;;;;;;43.47;10.50;;;12.60;99.90;;;;;;5032959;28;20180;-52
2022/06/01 04:34:57;;;;;;;54.20;12.80;;;;;;;;;;5032115;28;20212;-51
2022/06/01 04:37:23;;;;;;;53.63;12.20;;;12.30;99.90;;;;;;5032257;28;20592;-51
2022/06/01 04:39:48;;;;;;;59.77;13.60;;;12.20;99.90;;;;;;5032266;28;20216;-51
2022/06/01 04:42:14;;;;;;;63.30;14.97;;;;;;;;;;5032084;28;20621;-51
2022/06/01 04:44:41;;;;;;;55.23;13.03;;;;;;;;;;5032546;28;20388;-50
2022/06/01 04:47:08;;;;;;;51.93;12.57;;;;;;;;;;5031814;28;20620;-50
2022/06/01 04:49:33;;;;;;;58.37;13.60;;;12.60;99.90;;;;;;5031815;28;20246;-52
2022/06/01 04:51:59;;;;;;;44.87;10.70;;;;;;;;;;5031927;28;20700;-51
2022/06/01 04:54:25;;;;;;;72.60;16.83;;;;;;;;;;5031893;28;20260;-51
2022/06/01 04:56:51;;;;;;;64.00;15.13;;;;;;;;;;5031426;28;20764;-50
2022/06/01 04:59:17;;;;;;;43.80;10.57;;;;;;;;;;5032163;28;20204;-52
2022/06/01 05:01:44;;;;;;;57.57;13.70;;;12.30;99.90;;;;;;5031991;28;20220;-52
2022/06/01 05:04:10;;;;;;;69.73;16.57;;;;;;;;;;5031327;28;20223;-51
2022/06/01 05:06:36;;;;;;;61.80;14.90;;;;;;;;;;5031730;28;20581;-50
2022/06/01 05:09:01;;;;;;;64.43;15.60;;;;;;;;;;5031287;28;20351;-50
2022/06/01 05:11:27;;;;;;;60.83;15.40;;;;;;;;;;5032279;28;20696;-52
2022/06/01 05:13:53;;;;;;;86.10;20.03;;;;;;;;;;5031098;28;20701;-52
2022/06/01 05:16:19;;;;;;;54.17;13.17;;;12.60;99.90;;;;;;5031686;28;20207;-52
2022/06/01 05:18:44;;;;;;;60.83;14.50;;;12.90;99.90;;;;;;5031112;28;20258;-52
2022/06/01 05:21:10;;;;;;;68.83;16.63;;;;;;;;;;5029428;28;20200;-51
2022/06/01 05:23:36;;;;;;;67.33;16.40;;;;;;;;;;5029762;28;20181;-52
2022/06/01 05:26:03;;;;;;;44.90;11.27;;;12.90;99.90;;;;;;5022676;28;20296;-52
2022/06/01 05:28:31;;;;;;;71.80;17.07;;;12.90;99.90;;;;;;5026285;28;20707;-52
2022/06/01 05:31:02;;;;;;;55.37;12.43;;;12.80;99.90;;;;;;5037254;28;20271;-53
2022/06/01 05:33:28;;;;;;;82.73;19.20;;;13.30;99.90;;;;;;5029676;28;20667;-53
2022/06/01 05:35:54;;;;;;;61.93;14.43;;;13.20;99.90;;;;;;5022975;28;20235;-53
2022/06/01 05:38:19;;;;;;;43.63;10.67;;;13.40;99.90;;;;;;5020009;28;20205;-53
2022/06/01 05:40:46;;;;;;;61.20;14.80;;;13.20;99.90;;;;;;5031698;28;20210;-53
2022/06/01 05:43:14;;;;;;;82.33;20.30;;;13.20;99.90;;;;;;5031159;28;20287;-52
2022/06/01 05:45:40;;;;;;;54.50;13.67;;;14.80;99.90;;;;;;5028297;28;20212;-53
2022/06/01 05:48:08;;;;;;;69.73;16.90;;;13.30;99.90;;;;;;5029864;28;20220;-53
2022/06/01 05:50:34;;;;;;;67.80;16.80;;;;;;;;;;5031325;28;20668;-53
2022/06/01 05:53:00;;;;;;;65.70;16.63;;;13.70;99.90;;;;;;5036405;28;20212;-52
2022/06/01 05:55:25;;;;;;;78.10;19.13;;;13.40;99.90;;;;;;5031704;28;20232;-53
2022/06/01 05:57:51;;;;;;;70.38;17.90;;;13.30;99.90;;;;;;5028378;28;20577;-53
2022/06/01 06:00:17;;;;;;;60.30;14.97;;;13.70;99.90;;;;;;5035279;28;20548;-52
2022/06/01 06:02:43;;;;;;;77.28;18.77;;;13.70;99.90;;;;;;5044950;28;20176;-54
2022/06/01 06:07:54;;;;;;;58.97;15.07;;;13.80;99.90;;;;;;5033974;28;20262;-53
2022/06/01 06:10:20;;;;;;;53.60;13.77;;;14.00;99.90;;;;;;5030289;28;20216;-53
2022/06/01 06:12:46;;;;;;;50.72;12.68;;;13.60;99.90;;;;;;5030354;28;20230;-53
2022/06/01 06:15:11;;;;;;;89.63;21.90;;;13.20;99.90;;;;;;5029710;28;20223;-52
2022/06/01 06:17:37;;;;;;;85.80;21.58;;;;;;;;;;5029433;28;20263;-53
2022/06/01 06:20:04;;;;;;;42.03;11.32;;;;;;;;;;5014538;28;20365;-54
2022/06/01 06:22:29;;;;;;;56.63;15.07;;;;;;;;;;5022830;28;20302;-52
2022/06/01 06:24:55;;;;;;;23.42;6.70;;;14.00;99.90;;;;;;5030509;28;20820;-54
2022/06/01 06:27:21;;;;;;;69.13;16.77;;;;;;;;;;5025347;28;20809;-54
2022/06/01 06:29:47;;;;;;;327.50;64.70;;;;;;;;;;4985252;28;20184;-52
2022/06/01 06:32:13;;;;;;;123.82;25.73;;;;;;;;;;4978811;28;20184;-53
2022/06/01 06:34:38;;;;;;;157.32;32.85;;;14.30;99.90;;;;;;5004556;28;20216;-55
2022/06/01 06:37:05;;;;;;;158.48;36.08;;;;;;;;;;5005456;28;20212;-54
2022/06/01 06:39:30;;;;;;;207.00;50.60;;;14.60;99.90;;;;;;4990168;28;20205;-55
2022/06/01 06:41:56;;;;;;;176.90;40.72;;;;;;;;;;4998582;28;20243;-54
2022/06/01 06:44:22;;;;;;;217.77;46.25;;;;;;;;;;4990062;28;20199;-54
2022/06/01 06:46:48;;;;;;;62.40;16.00;;;14.70;99.90;;;;;;5001045;28;20580;-53
2022/06/01 06:49:14;;;;;;;61.80;16.17;;;;;;;;;;5025913;28;20258;-51
2022/06/01 06:51:40;;;;;;;60.22;16.15;;;15.10;99.90;;;;;;5010314;28;20240;-51
2022/06/01 06:54:06;;;;;;;48.85;14.20;;;15.40;66.90;;;;;;5008603;28;20231;-51
2022/06/01 06:56:32;;;;;;;58.58;16.83;;;;;;;;;;5011061;28;20641;-50
2022/06/01 06:58:58;;;;;;;62.30;16.95;;;;;;;;;;5009878;28;20597;-50
2022/06/01 07:01:24;;;;;;;95.00;25.40;;;;;;;;;;5009726;28;20219;-50
2022/06/01 07:03:50;;;;;;;66.65;18.15;;;15.40;34.50;;;;;;5009668;28;20216;-50
2022/06/01 07:06:19;;;;;;;66.82;19.15;;;;;;;;;;5009879;28;20261;-51
2022/06/01 07:08:47;;;;;;;44.83;13.30;;;15.40;34.40;;;;;;5009395;28;20304;-51
2022/06/01 07:11:15;;;;;;;77.85;22.13;;;15.80;1.00;;;;;;5018989;28;20176;-53
2022/06/01 07:13:41;;;;;;;81.70;23.25;;;;;;;;;;5032738;28;20271;-52
2022/06/01 07:16:18;;;;;;;65.50;19.30;;;16.20;1.00;;;;;;5025753;28;20746;-51
2022/06/01 07:18:47;;;;;;;71.32;21.50;;;15.70;1.00;;;;;;5026556;28;20220;-51
2022/06/01 07:21:14;;;;;;;91.15;25.25;;;15.60;1.00;;;;;;5025612;28;20222;-52
2022/06/01 07:23:41;;;;;;;68.65;19.80;;;15.80;1.00;;;;;;5034219;28;20230;-53
2022/06/01 07:26:09;;;;;;;69.13;20.55;;;16.00;1.00;;;;;;5033460;28;20208;-52
2022/06/01 07:28:36;;;;;;;57.50;17.73;;;;;;;;;;5032526;28;20203;-53
2022/06/01 07:31:01;;;;;;;67.25;20.27;;;16.10;1.00;;;;;;5033260;28;20243;-54
2022/06/01 07:33:29;;;;;;;66.78;19.35;;;16.00;1.00;;;;;;5032671;28;20219;-52
2022/06/01 07:35:59;;;;;;;84.13;24.95;;;16.10;1.00;;;;;;5018603;28;20230;-53
2022/06/01 07:43:59;;;;;;;61.80;19.05;;;;;;;;;;5031132;28;20259;-53
2022/06/01 07:46:24;;;;;;;69.88;22.25;;;16.40;99.90;;;;;;5030910;28;20246;-53
2022/06/01 07:48:50;;;;;;;68.40;22.02;;;16.40;99.90;;;;;;5021916;28;20762;-53
2022/06/01 07:51:17;;;;;;;68.63;23.23;;;16.50;33.90;;;;;;5032148;28;20631;-52
2022/06/01 07:53:43;;;;;;;70.13;22.70;;;16.60;99.90;;;;;;5030452;28;20314;-53
2022/06/01 07:56:09;;;;;;;57.20;20.83;;;;;;;;;;5032606;28;20204;-52
2022/06/01 07:58:35;;;;;;;83.53;26.08;;;;;;;;;;5024946;28;20209;-51
2022/06/01 08:01:01;;;;;;;59.88;20.55;;;;;;;;;;5035347;28;20311;-51
2022/06/01 08:03:28;;;;;;;61.30;24.35;;;;;;;;;;5037456;28;20723;-52
2022/06/01 08:05:54;;;;;;;51.50;20.17;;;;;;;;;;5025552;28;20310;-53
2022/06/01 08:08:20;;;;;;;96.00;32.13;;;;;;;;;;5023534;28;20253;-53
2022/06/01 08:10:46;;;;;;;82.15;28.58;;;17.10;18.80;;;;;;5020916;28;20221;-52
2022/06/01 08:13:14;;;;;;;48.63;17.65;;;16.90;99.90;;;;;;5023795;28;20209;-52
2022/06/01 08:15:49;;;;;;;59.75;22.13;;;16.80;28.50;;;;;;5025656;28;20353;-53
2022/06/01 08:18:20;;;;;;;84.78;27.38;;;17.10;1.00;;;;;;5023327;28;20228;-52
2022/06/01 08:20:47;;;;;;;62.88;21.92;;;18.10;17.80;;;;;;5025356;28;20219;-52
2022/06/01 08:23:13;;;;;;;81.20;29.10;;;17.10;99.90;;;;;;5026157;28;20621;-53
2022/06/01 08:25:41;;;;;;;71.93;24.05;;;17.00;97.50;;;;;;5028682;28;20204;-53
2022/06/01 08:28:07;;;;;;;74.40;25.27;;;;;;;;;;5023075;28;20231;-53
2022/06/01 08:30:34;;;;;;;74.80;27.30;;;17.80;99.90;;;;;;5037477;28;20216;-52
2022/06/01 08:33:00;;;;;;;76.05;25.92;;;17.70;99.90;;;;;;5034772;28;20342;-52
2022/06/01 08:35:30;;;;;;;68.38;24.65;;;17.70;1.00;;;;;;5030525;28;20203;-53
2022/06/01 08:37:57;;;;;;;55.75;18.70;;;17.70;99.90;;;;;;5025293;28;20209;-53
2022/06/01 08:40:27;;;;;;;66.57;23.55;;;17.90;1.00;;;;;;5035846;28;20295;-53
2022/06/01 08:43:03;;;;;;;92.07;27.23;;;17.80;99.90;;;;;;5025726;28;20205;-53
2022/06/01 08:45:30;;;;;;;62.53;19.95;;;17.80;99.90;;;;;;5015829;28;20287;-51
2022/06/01 08:47:56;;;;;;;77.93;24.40;;;;;;;;;;5028427;28;20766;-53
2022/06/01 08:50:29;;;;;;;79.65;25.88;;;17.90;1.00;;;;;;5037826;28;20203;-53
2022/06/01 08:52:58;;;;;;;55.08;17.92;;;17.90;82.30;;;;;;5031900;28;20286;-53
2022/06/01 08:55:26;;;;;;;51.63;19.63;;;18.10;1.00;;;;;;5030340;28;20232;-52
2022/06/01 08:57:59;;;;;;;65.93;20.95;;;18.50;1.00;;;;;;5029683;28;20212;-53
2022/06/01 09:00:29;;;;;;;54.40;19.35;;;18.30;1.00;;;;;;5024883;28;20247;-53
2022/06/01 09:03:18;;;;;;;69.63;22.60;;;18.50;1.00;;;;;;5025160;28;20573;-53
2022/06/01 09:05:59;;;;;;;67.38;22.70;;;18.50;68.20;;;;;;5011927;28;20220;-52
2022/06/01 09:08:48;;;;;;;48.92;17.30;;;18.70;99.90;;;;;;5032111;28;20704;-53
2022/06/01 09:11:24;;;;;;;64.40;24.67;;;18.50;1.00;;;;;;5031836;28;20229;-53
2022/06/01 09:14:02;;;;;;;73.68;25.60;;;18.90;1.00;;;;;;5025053;28;20215;-51
2022/06/01 09:16:40;;;;;;;67.85;22.73;;;19.00;99.90;;;;;;5030846;28;20752;-52
2022/06/01 09:19:11;;;;;;;75.93;26.38;;;18.90;1.00;;;;;;5026981;28;20266;-53
2022/06/01 09:24:31;;;;;;;50.55;19.23;;;19.10;99.90;;;;;;5031069;28;20443;-53
2022/06/01 09:27:01;;;;;;;56.88;20.33;;;19.10;1.00;;;;;;5031095;28;20282;-53
2022/06/01 09:29:33;;;;;;;45.63;16.75;;;18.60;99.90;;;;;;5031662;28;20185;-51
2022/06/01 09:32:02;;;;;;;48.92;16.52;;;18.60;99.90;;;;;;5024727;28;20221;-53
2022/06/01 09:34:42;;;;;;;88.30;26.33;;;18.20;1.00;;;;;;5029166;28;20338;-52
2022/06/01 09:37:29;;;;;;;58.38;18.65;;;18.30;99.90;;;;;;5030988;28;20704;-52
2022/06/01 09:40:00;;;;;;;67.10;20.75;;;18.20;1.00;;;;;;5010938;28;20291;-53
2022/06/01 09:42:39;;;;;;;50.20;15.95;;;18.10;96.40;;;;;;5014213;28;20724;-53
2022/06/01 09:45:22;;;;;;;72.80;22.80;;;18.20;99.90;;;;;;5030246;28;20218;-53
2022/06/01 09:47:50;;;;;;;51.42;16.58;;;18.40;99.90;;;;;;5016509;28;20673;-53
2022/06/01 09:50:28;;;;;;;70.35;21.55;;;18.60;1.00;;;;;;5030970;28;20167;-53
2022/06/01 09:53:00;;;;;;;48.15;18.05;;;18.40;1.00;;;;;;5024931;28;20196;-53
2022/06/01 09:55:29;;;;;;;53.50;18.92;;;18.60;1.00;;;;;;5025555;28;20336;-51
2022/06/01 09:58:03;;;;;;;73.82;25.05;;;18.90;99.90;;;;;;5030319;28;20255;-52
2022/06/01 10:06:20;;;;;;;64.95;26.52;;;19.60;1.00;;;;;;5014464;28;20274;-53
2022/06/01 10:09:19;;;;;;;68.13;35.85;;;19.60;1.00;;;;;;5013788;28;20212;-53
2022/06/01 10:11:47;;;;;;;90.03;72.32;;;20.10;1.00;;;;;;5022422;28;20184;-53
2022/06/01 10:14:32;;;;;;;119.47;100.55;;;20.10;99.90;;;;;;5023274;28;20169;-53
2022/06/01 10:17:06;;;;;;;104.43;94.72;;;20.30;1.00;;;;;;5030603;28;20250;-53
2022/06/01 10:19:53;;;;;;;122.25;108.25;;;20.30;99.90;;;;;;5037156;28;20207;-52
2022/06/01 10:22:59;;;;;;;130.40;104.63;;;20.30;1.00;;;;;;5023939;28;20212;-53
2022/06/01 10:25:31;;;;;;;105.03;93.35;;;20.30;1.00;;;;;;5025266;28;20258;-53
2022/06/01 10:28:03;;;;;;;112.70;101.43;;;20.00;99.90;;;;;;5021161;28;20224;-53
2022/06/01 10:30:33;;;;;;;116.80;96.00;;;19.70;99.90;;;;;;5029701;28;20825;-52
2022/06/01 10:33:06;;;;;;;100.53;88.13;;;19.40;1.00;;;;;;5028883;28;20215;-53
2022/06/01 10:35:37;;;;;;;111.32;93.22;;;19.30;1.00;;;;;;5026915;28;20218;-53
2022/06/01 10:38:18;;;;;;;123.55;94.97;;;19.10;1.00;;;;;;5030504;28;20684;-53
2022/06/01 10:40:59;;;;;;;114.97;86.30;;;19.20;35.80;;;;;;5023281;28;20709;-53
2022/06/01 10:43:45;;;;;;;135.07;93.50;;;19.30;1.00;;;;;;5016147;28;20506;-51
2022/06/01 10:46:29;;;;;;;110.50;85.47;;;19.50;99.90;;;;;;5026374;28;20210;-53
2022/06/01 10:49:20;;;;;;;123.40;86.70;;;19.70;99.90;;;;;;5024039;28;20215;-51
2022/06/01 10:51:54;;;;;;;118.75;90.30;;;19.80;1.00;;;;;;5024132;28;20291;-53
2022/06/01 10:54:28;;;;;;;107.40;80.80;;;20.30;1.00;;;;;;5034856;28;20218;-53
2022/06/01 10:56:55;;;;;;;141.02;97.80;;;20.10;99.90;;;;;;5027870;28;20234;-51
2022/06/01 10:59:22;;;;;;;95.57;75.40;;;20.00;1.00;;;;;;5032199;28;20267;-53
2022/06/01 11:01:57;;;;;;;124.80;82.00;;;20.20;99.90;;;;;;5030241;28;20200;-53
2022/06/01 11:04:47;;;;;;;104.50;75.72;;;18.70;95.00;;;;;;5024399;28;20537;-53
2022/06/01 11:07:13;;;;;;;76.53;67.88;;;;;;;;;;5026330;28;20212;-53
2022/06/01 11:10:09;;;;;;;129.30;84.93;;;20.30;99.90;;;;;;5032941;28;20219;-53
2022/06/01 11:13:03;;;;;;;101.80;76.57;;;20.40;99.40;;;;;;5023113;28;20212;-52
2022/06/01 11:16:00;;;;;;;101.53;80.32;;;20.80;99.90;;;;;;5022256;28;20219;-53
2022/06/01 11:19:03;;;;;;;110.35;80.63;;;20.50;1.00;;;;;;5009510;28;20255;-53
2022/06/01 11:21:53;;;;;;;95.90;74.72;;;20.90;1.00;;;;;;5034175;28;20228;-52
2022/06/01 11:24:19;;;;;;;103.57;76.18;;;;;;;;;;5028700;28;20223;-51
2022/06/01 11:27:29;;;;;;;80.40;64.97;;;21.20;38.10;;;;;;5029041;28;20271;-51
2022/06/01 11:30:02;;;;;;;63.50;57.92;;;21.30;99.90;;;;;;5026487;28;20216;-53
2022/06/01 11:32:50;;;;;;;129.02;88.28;;;21.10;99.90;;;;;;5020879;28;20216;-53
2022/06/01 11:35:55;;;;;;;73.30;66.57;;;21.40;99.90;;;;;;5021936;28;20223;-53
2022/06/01 11:38:34;;;;;;;63.20;57.10;;;21.40;1.00;;;;;;4981783;28;20225;-53
2022/06/01 11:41:09;;;;;;;73.07;65.93;;;21.80;1.00;;;;;;5012893;28;20237;-52
2022/06/01 11:43:49;;;;;;;64.78;58.97;;;21.40;99.90;;;;;;5024068;28;20208;-53
2022/06/01 11:46:22;;;;;;;67.40;61.13;;;21.90;99.90;;;;;;5014359;28;20210;-53
2022/06/01 11:48:54;;;;;;;66.72;59.15;;;21.50;99.90;;;;;;5021142;28;20244;-53
2022/06/01 11:51:43;;;;;;;65.90;53.10;;;21.50;99.90;;;;;;5022784;28;20216;-52
2022/06/01 11:54:28;;;;;;;41.63;38.33;;;20.80;90.20;;;;;;5023002;28;20245;-52
2022/06/01 11:57:37;;;;;;;62.35;49.25;;;21.00;99.90;;;;;;5019478;28;20902;-53
2022/06/01 12:00:17;;;;;;;49.15;43.92;;;20.80;89.90;;;;;;4966306;28;20226;-52
2022/06/01 12:02:44;;;;;;;95.93;61.88;;;20.70;99.90;;;;;;4961881;28;20196;-54
2022/06/01 12:05:21;;;;;;;57.08;43.47;;;21.10;99.90;;;;;;5004092;28;20176;-53
2022/06/01 12:07:54;;;;;;;64.72;49.38;;;21.10;99.90;;;;;;5019169;28;20219;-53
2022/06/01 12:10:25;;;;;;;40.72;37.33;;;21.30;42.30;;;;;;5020589;28;20244;-54
2022/06/01 12:13:02;;;;;;;65.53;49.90;;;21.60;99.90;;;;;;5028478;28;20238;-53
2022/06/01 12:16:02;;;;;;;51.40;45.10;;;21.40;99.90;;;;;;5020655;28;20230;-53
2022/06/01 12:18:29;;;;;;;47.13;38.22;;;21.30;99.90;;;;;;5029628;28;20234;-52
2022/06/01 12:21:27;;;;;;;56.05;49.25;;;22.20;1.00;;;;;;5019442;28;20220;-54
2022/06/01 12:30:08;;;;;;;59.20;47.03;;;22.00;99.90;;;;;;5035036;28;20272;-53
2022/06/01 12:32:59;;;;;;;71.20;51.80;;;22.20;99.90;;;;;;5029385;28;20246;-54
2022/06/01 12:35:45;;;;;;;54.50;48.85;;;22.40;99.90;;;;;;5034163;28;20228;-54
2022/06/01 12:38:17;;;;;;;56.22;48.88;;;22.70;1.00;;;;;;5017079;28;20216;-54
2022/06/01 12:41:08;;;;;;;57.67;47.70;;;22.50;1.00;;;;;;5019659;28;20213;-52
2022/06/01 12:43:34;;;;;;;82.43;64.22;;;22.40;1.00;;;;;;5026281;28;20216;-53
2022/06/01 12:46:00;;;;;;;71.65;58.88;;;22.30;1.00;;;;;;5036129;28;20220;-53
2022/06/01 12:48:27;;;;;;;70.82;61.83;;;22.80;99.90;;;;;;5029914;28;20230;-54
2022/06/01 12:50:59;;;;;;;82.50;74.05;;;23.10;99.90;;;;;;5033495;28;20246;-53
2022/06/01 12:53:42;;;;;;;120.38;107.40;;;22.90;99.90;;;;;;5038342;28;20184;-53
2022/06/01 12:56:09;;;;;;;115.38;103.30;;;23.20;99.90;;;;;;5029043;28;20242;-54
2022/06/01 12:58:35;;;;;;;115.80;104.85;;;23.40;99.90;;;;;;5030183;28;20211;-53
2022/06/01 13:01:02;;;;;;;143.70;128.55;;;23.40;99.90;;;;;;5026219;28;20300;-53
2022/06/01 13:03:32;;;;;;;139.45;125.25;;;23.20;99.90;;;;;;5030876;28;20270;-53
2022/06/01 13:05:59;;;;;;;159.07;141.20;;;;;;;;;;5019087;28;20235;-51
2022/06/01 13:08:32;;;;;;;179.25;155.27;;;22.80;99.90;;;;;;5026207;28;20200;-53
2022/06/01 13:11:28;;;;;;;177.80;149.70;;;23.10;99.90;;;;;;5031268;28;20291;-54
2022/06/01 13:13:58;;;;;;;164.90;147.02;;;22.90;99.90;;;;;;5017982;28;20665;-54
2022/06/01 13:16:34;;;;;;;186.10;154.30;;;22.60;99.90;;;;;;5016997;28;20559;-53
2022/06/01 13:19:18;;;;;;;168.93;147.65;;;23.20;1.00;;;;;;5026318;28;20580;-54
2022/06/01 13:21:47;;;;;;;184.75;158.43;;;23.50;99.90;;;;;;5027559;28;20211;-53
2022/06/01 13:24:14;;;;;;;206.20;169.85;;;23.50;99.90;;;;;;5031366;28;20680;-54
2022/06/01 13:26:40;;;;;;;315.63;200.68;;;;;;;;;;5027604;28;20199;-52
2022/06/01 13:29:19;;;;;;;330.90;203.30;;;23.10;1.00;;;;;;5025992;28;20274;-53
2022/06/01 13:31:49;;;;;;;307.90;189.45;;;23.60;99.90;;;;;;5016865;28;20239;-53
2022/06/01 13:34:28;;;;;;;331.88;204.02;;;23.10;1.00;;;;;;5024871;28;20216;-52
2022/06/01 13:36:53;;;;;;;316.20;188.77;;;22.80;99.90;;;;;;5017486;28;20200;-53